Time;durP1;ratioP1;P1;durP2;ratioP2;P2;SDS_P1;SDS_P2;PMS_P1;PMS_P2;Temp;Humidity;BMP_temperature;BMP_pressure;BME280_temperature;BME280_humidity;BME280_pressure;Samples;Min_cycle;Max_cycle;Signal;HPM_P1;HPM_P2
2022/07/11 00:02:08;;;;;;;0.60;0.60;;;16.70;99.90;;;;;;5049964;28;20218;-62
2022/07/11 00:04:36;;;;;;;0.60;0.60;;;16.60;99.90;;;;;;5048975;28;20371;-64
2022/07/11 00:07:03;;;;;;;0.70;0.70;;;16.60;99.90;;;;;;5050318;28;20603;-63
2022/07/11 00:09:31;;;;;;;0.52;0.52;;;16.60;99.90;;;;;;5050045;28;20299;-62
2022/07/11 00:11:58;;;;;;;0.50;0.50;;;16.60;99.90;;;;;;5050173;28;20309;-63
2022/07/11 00:14:25;;;;;;;0.60;0.60;;;16.50;99.90;;;;;;5049425;28;20242;-64
2022/07/11 00:16:54;;;;;;;0.68;0.55;;;16.50;99.90;;;;;;5047483;28;20204;-63
2022/07/11 00:19:21;;;;;;;0.63;0.63;;;16.50;99.90;;;;;;5051404;28;20271;-62
2022/07/11 00:21:48;;;;;;;0.77;0.77;;;16.50;99.90;;;;;;5056646;28;20279;-62
2022/07/11 00:24:17;;;;;;;0.50;0.50;;;16.30;99.90;;;;;;5055281;28;20585;-63
2022/07/11 00:26:46;;;;;;;0.50;0.50;;;16.20;99.90;;;;;;5057186;28;20215;-63
2022/07/11 00:29:13;;;;;;;0.70;0.70;;;16.20;99.90;;;;;;5047545;28;20208;-62
2022/07/11 00:31:40;;;;;;;0.55;0.55;;;16.20;99.90;;;;;;5049609;28;20309;-63
2022/07/11 00:34:08;;;;;;;0.60;0.60;;;16.10;99.90;;;;;;5049548;28;20250;-63
2022/07/11 00:36:35;;;;;;;0.60;0.60;;;15.90;99.90;;;;;;5050086;28;20226;-63
2022/07/11 00:39:03;;;;;;;0.47;0.47;;;15.80;99.90;;;;;;5049137;28;20206;-62
2022/07/11 00:41:30;;;;;;;0.75;0.75;;;15.60;99.90;;;;;;5049036;28;20236;-63
2022/07/11 00:43:59;;;;;;;0.70;0.70;;;15.60;99.90;;;;;;5051060;28;20725;-62
2022/07/11 00:46:28;;;;;;;0.80;0.80;;;15.50;99.90;;;;;;5050011;28;20216;-64
2022/07/11 00:48:55;;;;;;;0.73;0.73;;;15.40;99.90;;;;;;5049892;28;20239;-66
2022/07/11 00:51:24;;;;;;;0.68;0.68;;;15.40;99.90;;;;;;5050238;28;20227;-63
2022/07/11 00:53:53;;;;;;;0.70;0.70;;;15.40;99.90;;;;;;5050095;28;20588;-63
2022/07/11 00:56:21;;;;;;;0.80;0.80;;;15.40;99.90;;;;;;5047406;28;20215;-63
2022/07/11 00:58:48;;;;;;;0.63;0.63;;;15.40;99.90;;;;;;5060353;28;20239;-64
2022/07/11 01:01:15;;;;;;;0.70;0.70;;;15.40;99.90;;;;;;5067537;28;20219;-64
2022/07/11 01:03:42;;;;;;;0.80;0.80;;;15.40;99.90;;;;;;5060745;28;20517;-64
2022/07/11 01:06:10;;;;;;;0.80;0.80;;;15.50;99.90;;;;;;5049874;28;20745;-65
2022/07/11 01:08:39;;;;;;;0.70;0.70;;;15.50;99.90;;;;;;5049339;28;20757;-63
2022/07/11 01:11:09;;;;;;;0.70;0.70;;;15.50;99.90;;;;;;5049959;28;20263;-63
2022/07/11 01:13:35;;;;;;;0.57;0.57;;;15.70;99.90;;;;;;5049205;28;20212;-65
2022/07/11 01:16:13;;;;;;;0.50;0.50;;;15.60;99.90;;;;;;5049344;28;20247;-63
2022/07/11 01:18:45;;;;;;;0.80;0.80;;;15.60;99.90;;;;;;5049023;28;20208;-65
2022/07/11 01:21:23;;;;;;;0.70;0.70;;;15.60;99.90;;;;;;5048930;28;20853;-63
2022/07/11 01:23:52;;;;;;;0.60;0.60;;;15.60;99.90;;;;;;5049681;28;20223;-64
2022/07/11 01:26:21;;;;;;;0.70;0.70;;;15.70;99.90;;;;;;5049160;28;20215;-65
2022/07/11 01:28:48;;;;;;;0.80;0.80;;;15.70;99.90;;;;;;5051129;28;20630;-64
2022/07/11 01:31:15;;;;;;;0.80;0.60;;;15.70;99.90;;;;;;5053092;28;20259;-64
2022/07/11 01:33:42;;;;;;;0.80;0.80;;;15.70;99.90;;;;;;5048246;28;20204;-63
2022/07/11 01:36:10;;;;;;;0.60;0.60;;;15.70;99.90;;;;;;5051710;28;20287;-65
2022/07/11 01:38:37;;;;;;;0.70;0.70;;;15.70;99.90;;;;;;5059000;28;20303;-63
2022/07/11 01:41:05;;;;;;;0.88;0.70;;;15.60;99.90;;;;;;5070814;28;20307;-63
2022/07/11 01:43:32;;;;;;;0.63;0.60;;;15.70;99.90;;;;;;5066560;28;20239;-65
2022/07/11 01:45:59;;;;;;;0.55;0.55;;;15.70;99.90;;;;;;5061545;28;20659;-65
2022/07/11 01:48:26;;;;;;;0.60;0.60;;;15.60;99.90;;;;;;5060879;28;20291;-63
2022/07/11 01:50:53;;;;;;;0.70;0.70;;;15.60;99.90;;;;;;5054534;28;20220;-63
2022/07/11 01:53:20;;;;;;;0.60;0.60;;;15.60;99.90;;;;;;5058750;28;20318;-63
2022/07/11 01:55:47;;;;;;;0.60;0.60;;;15.50;99.90;;;;;;5052989;28;20226;-63
2022/07/11 01:58:15;;;;;;;0.63;0.63;;;15.50;99.90;;;;;;5051896;28;20287;-63
2022/07/11 02:00:42;;;;;;;0.60;0.60;;;15.40;99.90;;;;;;5047193;28;20248;-64
2022/07/11 02:03:09;;;;;;;0.70;0.70;;;15.20;99.90;;;;;;5052308;28;20215;-64
2022/07/11 02:05:38;;;;;;;0.88;0.88;;;15.10;99.90;;;;;;5052237;28;20283;-65
2022/07/11 02:08:15;;;;;;;0.52;0.52;;;15.10;99.90;;;;;;5053258;28;20204;-62
2022/07/11 02:10:44;;;;;;;0.70;0.70;;;15.00;99.90;;;;;;5054936;28;20233;-65
2022/07/11 02:13:11;;;;;;;0.57;0.57;;;14.90;99.90;;;;;;5054095;28;20234;-64
2022/07/11 02:15:40;;;;;;;0.63;0.63;;;14.80;99.90;;;;;;5053746;28;20551;-64
2022/07/11 02:18:08;;;;;;;0.60;0.60;;;14.80;99.90;;;;;;5051950;28;20309;-64
2022/07/11 02:20:36;;;;;;;0.70;0.70;;;14.70;99.90;;;;;;5051694;28;20228;-64
2022/07/11 02:23:03;;;;;;;0.60;0.60;;;14.70;99.90;;;;;;5052642;28;20214;-64
2022/07/11 02:25:31;;;;;;;0.63;0.63;;;14.70;99.90;;;;;;5051421;28;20208;-63
2022/07/11 02:27:59;;;;;;;0.52;0.52;;;14.70;99.90;;;;;;5052605;28;20665;-62
2022/07/11 02:30:26;;;;;;;0.68;0.68;;;14.70;99.90;;;;;;5052428;28;20247;-63
2022/07/11 02:32:54;;;;;;;0.47;0.47;;;14.60;99.90;;;;;;5052900;28;20314;-63
2022/07/11 02:35:21;;;;;;;0.85;0.85;;;14.60;99.90;;;;;;5052526;28;20235;-63
2022/07/11 02:37:49;;;;;;;0.50;0.50;;;14.50;99.90;;;;;;5051811;28;20202;-63
2022/07/11 02:40:16;;;;;;;0.65;0.65;;;14.50;99.90;;;;;;5046936;28;20234;-62
2022/07/11 02:42:43;;;;;;;0.68;0.60;;;14.50;99.90;;;;;;5051637;28;20211;-63
2022/07/11 02:45:10;;;;;;;0.70;0.70;;;14.50;99.90;;;;;;5051610;28;20651;-62
2022/07/11 02:47:39;;;;;;;0.75;0.75;;;14.60;99.90;;;;;;5051346;28;20576;-65
2022/07/11 02:50:08;;;;;;;0.70;0.70;;;14.50;99.90;;;;;;5051538;28;20234;-63
2022/07/11 02:52:35;;;;;;;0.60;0.60;;;14.50;99.90;;;;;;5051385;28;20774;-64
2022/07/11 02:55:02;;;;;;;3.30;0.88;;;14.50;99.90;;;;;;5052009;28;20204;-63
2022/07/11 02:57:30;;;;;;;0.60;0.60;;;14.50;99.90;;;;;;5051438;28;20208;-65
2022/07/11 02:59:57;;;;;;;0.70;0.70;;;14.40;99.90;;;;;;5049372;28;20208;-63
2022/07/11 03:02:23;;;;;;;0.70;0.70;;;14.50;99.90;;;;;;5051461;28;20202;-62
2022/07/11 03:04:50;;;;;;;0.70;0.70;;;14.30;99.90;;;;;;5051525;28;20235;-63
2022/07/11 03:07:18;;;;;;;0.60;0.60;;;14.20;99.90;;;;;;5051033;28;20200;-63
2022/07/11 03:09:45;;;;;;;0.60;0.60;;;14.10;99.90;;;;;;5050899;28;20214;-63
2022/07/11 03:12:12;;;;;;;0.60;0.60;;;14.10;99.90;;;;;;5051130;28;20218;-63
2022/07/11 03:14:39;;;;;;;0.70;0.70;;;14.10;99.90;;;;;;5050765;28;20210;-63
2022/07/11 03:17:06;;;;;;;0.60;0.60;;;14.10;99.90;;;;;;5051206;28;20204;-65
2022/07/11 03:19:33;;;;;;;0.80;0.80;;;14.20;99.90;;;;;;5051286;28;20208;-62
2022/07/11 03:21:59;;;;;;;0.50;0.50;;;14.30;99.90;;;;;;5051088;28;20302;-64
2022/07/11 03:24:28;;;;;;;0.60;0.60;;;14.30;99.90;;;;;;5051983;28;20575;-63
2022/07/11 03:26:55;;;;;;;0.90;0.90;;;14.40;99.90;;;;;;5049650;28;20246;-62
2022/07/11 03:29:21;;;;;;;0.70;0.70;;;14.40;99.90;;;;;;5049796;28;20224;-62
2022/07/11 03:31:48;;;;;;;0.77;0.77;;;14.30;99.90;;;;;;5050595;28;20349;-64
2022/07/11 03:34:15;;;;;;;0.82;0.82;;;14.30;99.90;;;;;;5051625;28;20287;-63
2022/07/11 03:36:42;;;;;;;0.70;0.70;;;14.30;99.90;;;;;;5052712;28;20215;-62
2022/07/11 03:39:09;;;;;;;0.70;0.70;;;14.30;99.90;;;;;;5049344;28;20588;-62
2022/07/11 03:41:37;;;;;;;0.82;0.82;;;14.30;99.90;;;;;;5051702;28;20239;-63
2022/07/11 03:44:04;;;;;;;1.25;0.70;;;14.40;99.90;;;;;;5053442;28;20235;-63
2022/07/11 03:46:31;;;;;;;0.80;0.80;;;14.40;99.90;;;;;;5051817;28;20290;-63
2022/07/11 03:48:58;;;;;;;0.70;0.70;;;14.40;99.90;;;;;;5051875;28;20683;-61
2022/07/11 03:51:25;;;;;;;0.60;0.60;;;14.30;99.90;;;;;;5050869;28;20220;-61
2022/07/11 03:53:52;;;;;;;0.70;0.70;;;14.30;99.90;;;;;;5049341;28;20224;-62
2022/07/11 03:56:22;;;;;;;0.60;0.60;;;14.40;99.90;;;;;;5050790;28;20200;-63
2022/07/11 03:58:50;;;;;;;0.70;0.70;;;14.50;99.90;;;;;;5048553;28;20203;-62
2022/07/11 04:01:17;;;;;;;0.70;0.70;;;14.50;99.90;;;;;;5045626;28;20220;-63
2022/07/11 04:03:44;;;;;;;0.75;0.75;;;14.50;99.90;;;;;;5050079;28;20199;-63
2022/07/11 04:06:11;;;;;;;0.70;0.70;;;14.50;99.90;;;;;;5050480;28;20224;-62
2022/07/11 04:08:37;;;;;;;0.60;0.60;;;14.50;99.90;;;;;;5050069;28;20208;-64
2022/07/11 04:11:05;;;;;;;0.80;0.80;;;14.60;99.90;;;;;;5050639;28;20980;-61
2022/07/11 04:13:32;;;;;;;0.63;0.63;;;14.60;99.90;;;;;;5050751;28;20270;-63
2022/07/11 04:16:00;;;;;;;0.63;0.63;;;14.60;99.90;;;;;;5051604;28;20299;-62
2022/07/11 04:18:28;;;;;;;0.70;0.70;;;14.50;99.90;;;;;;5057553;28;20679;-64
2022/07/11 04:20:54;;;;;;;0.80;0.80;;;14.50;99.90;;;;;;5051519;28;20228;-63
2022/07/11 04:23:21;;;;;;;0.50;0.50;;;14.50;99.90;;;;;;5052959;28;20200;-64
2022/07/11 04:25:48;;;;;;;0.70;0.70;;;14.50;99.90;;;;;;5050234;28;20284;-63
2022/07/11 04:28:15;;;;;;;0.70;0.70;;;14.50;99.90;;;;;;5050217;28;20605;-63
2022/07/11 04:30:42;;;;;;;0.60;0.60;;;14.50;99.90;;;;;;5048264;28;20366;-62
2022/07/11 04:33:10;;;;;;;0.60;0.60;;;14.50;99.90;;;;;;5051438;28;20224;-63
2022/07/11 04:35:37;;;;;;;0.80;0.80;;;14.50;99.90;;;;;;5051279;28;20208;-62
2022/07/11 04:38:04;;;;;;;0.80;0.80;;;14.60;99.90;;;;;;5051535;28;20290;-64
2022/07/11 04:40:30;;;;;;;1.13;0.60;;;14.60;99.90;;;;;;5052734;28;20223;-64
2022/07/11 04:42:57;;;;;;;0.70;0.70;;;14.50;99.90;;;;;;5056792;28;20283;-62
2022/07/11 04:45:24;;;;;;;0.80;0.75;;;14.60;99.90;;;;;;5053923;28;20214;-63
2022/07/11 04:47:51;;;;;;;0.60;0.60;;;14.70;99.90;;;;;;5048395;28;20315;-62
2022/07/11 04:50:19;;;;;;;0.80;0.80;;;14.70;99.90;;;;;;5051174;28;20569;-63
2022/07/11 04:52:46;;;;;;;0.70;0.70;;;14.80;99.90;;;;;;5045940;28;20255;-63
2022/07/11 04:55:13;;;;;;;0.65;0.65;;;14.90;99.90;;;;;;5052486;28;20359;-62
2022/07/11 04:57:40;;;;;;;0.80;0.80;;;14.80;99.90;;;;;;5048784;28;20518;-63
2022/07/11 05:00:08;;;;;;;0.70;0.70;;;14.90;99.90;;;;;;5049365;28;20315;-62
2022/07/11 05:02:35;;;;;;;0.77;0.77;;;14.90;99.90;;;;;;5052170;28;20199;-62
2022/07/11 05:05:02;;;;;;;0.80;0.80;;;15.00;99.90;;;;;;5054772;28;20276;-64
2022/07/11 05:07:30;;;;;;;0.98;0.93;;;15.20;99.90;;;;;;5056755;28;20200;-62
2022/07/11 05:09:57;;;;;;;0.65;0.65;;;15.20;99.90;;;;;;5055296;28;20214;-62
2022/07/11 05:12:24;;;;;;;0.80;0.80;;;15.30;99.90;;;;;;5055596;28;20232;-67
2022/07/11 05:14:51;;;;;;;0.70;0.70;;;15.30;99.90;;;;;;5055840;28;20584;-62
2022/07/11 05:17:18;;;;;;;0.80;0.80;;;15.30;99.90;;;;;;5054827;28;20647;-62
2022/07/11 05:19:45;;;;;;;0.90;0.90;;;15.40;99.90;;;;;;5052514;28;20232;-63
2022/07/11 05:22:12;;;;;;;1.00;1.00;;;15.60;99.90;;;;;;5054382;28;20206;-62
2022/07/11 05:24:40;;;;;;;0.70;0.70;;;15.70;99.90;;;;;;5054463;28;20210;-62
2022/07/11 05:27:07;;;;;;;0.80;0.80;;;15.90;99.90;;;;;;5055796;28;20200;-59
2022/07/11 05:29:34;;;;;;;0.70;0.70;;;16.20;99.90;;;;;;5052277;28;20242;-62
2022/07/11 05:32:01;;;;;;;0.80;0.70;;;16.30;99.90;;;;;;5051868;28;20235;-62
2022/07/11 05:34:28;;;;;;;1.13;0.95;;;16.50;99.90;;;;;;5054861;28;20227;-63
2022/07/11 05:36:54;;;;;;;0.85;0.77;;;16.70;99.90;;;;;;5056389;28;20210;-63
2022/07/11 05:39:21;;;;;;;1.07;1.07;;;16.90;99.90;;;;;;5054274;28;20563;-63
2022/07/11 05:41:51;;;;;;;2.10;0.90;;;17.10;99.90;;;;;;5054764;28;20301;-63
2022/07/11 05:44:18;;;;;;;0.60;0.60;;;17.30;99.90;;;;;;5051271;28;20207;-63
2022/07/11 05:46:45;;;;;;;0.85;0.70;;;17.40;99.90;;;;;;5052398;28;20211;-62
2022/07/11 05:49:13;;;;;;;0.70;0.70;;;17.60;99.90;;;;;;5049596;28;20203;-64
2022/07/11 05:51:40;;;;;;;0.80;0.80;;;17.80;99.90;;;;;;5053029;28;20220;-64
2022/07/11 05:54:07;;;;;;;0.85;0.85;;;18.00;99.90;;;;;;5046909;28;20212;-63
2022/07/11 05:56:34;;;;;;;0.75;0.75;;;18.30;99.90;;;;;;5049716;28;20203;-63
2022/07/11 05:59:02;;;;;;;0.98;0.98;;;18.50;99.90;;;;;;5054098;28;20668;-63
2022/07/11 06:01:31;;;;;;;0.80;0.80;;;18.70;99.90;;;;;;5051999;28;20230;-63
2022/07/11 06:03:59;;;;;;;0.77;0.77;;;18.80;99.90;;;;;;5053827;28;20306;-63
2022/07/11 06:06:26;;;;;;;0.75;0.75;;;19.00;99.90;;;;;;5049377;28;20215;-63
2022/07/11 06:08:53;;;;;;;0.93;0.93;;;19.20;99.90;;;;;;5054158;28;20227;-64
2022/07/11 06:11:20;;;;;;;0.70;0.70;;;19.40;99.90;;;;;;5056184;28;20649;-64
2022/07/11 06:13:48;;;;;;;0.60;0.60;;;19.60;99.90;;;;;;5055877;28;20307;-63
2022/07/11 06:16:17;;;;;;;0.70;0.70;;;19.70;99.90;;;;;;5051924;28;20311;-63
2022/07/11 06:18:44;;;;;;;0.70;0.70;;;19.80;99.90;;;;;;5054417;28;20246;-63
2022/07/11 06:21:12;;;;;;;0.80;0.80;;;19.70;99.90;;;;;;5059171;28;20256;-61
2022/07/11 06:23:40;;;;;;;0.65;0.65;;;19.80;99.90;;;;;;5055750;28;20199;-62
2022/07/11 06:26:07;;;;;;;0.80;0.80;;;19.80;99.90;;;;;;5059459;28;20204;-67
2022/07/11 06:28:34;;;;;;;0.70;0.70;;;19.80;99.90;;;;;;5063097;28;20235;-65
2022/07/11 06:31:01;;;;;;;0.70;0.70;;;19.80;99.90;;;;;;5060906;28;20270;-62
2022/07/11 06:33:30;;;;;;;0.80;0.80;;;20.00;99.90;;;;;;5061722;28;20220;-65
2022/07/11 06:35:57;;;;;;;0.77;0.77;;;20.10;99.90;;;;;;5052472;28;20287;-62
2022/07/11 06:38:23;;;;;;;0.70;0.70;;;20.20;99.90;;;;;;5053198;28;20200;-62
2022/07/11 06:40:50;;;;;;;0.55;0.55;;;20.30;99.90;;;;;;5044519;28;20217;-62
2022/07/11 06:43:17;;;;;;;0.85;0.85;;;20.40;99.90;;;;;;5048248;28;20207;-63
2022/07/11 06:45:44;;;;;;;0.93;0.93;;;20.50;99.90;;;;;;5053624;28;20631;-63
2022/07/11 06:48:11;;;;;;;0.90;0.90;;;20.60;99.90;;;;;;5044396;28;20208;-63
2022/07/11 06:50:40;;;;;;;0.65;0.65;;;20.60;99.90;;;;;;5044501;28;20224;-63
2022/07/11 06:53:07;;;;;;;0.70;0.70;;;20.60;99.90;;;;;;5043224;28;20221;-63
2022/07/11 06:55:34;;;;;;;0.63;0.63;;;20.70;99.90;;;;;;5050947;28;20658;-65
2022/07/11 06:58:01;;;;;;;0.63;0.63;;;20.80;99.90;;;;;;5046083;28;20208;-65
2022/07/11 07:00:28;;;;;;;0.70;0.70;;;20.90;99.90;;;;;;5049955;28;20301;-63
2022/07/11 07:02:56;;;;;;;0.70;0.70;;;20.90;99.90;;;;;;5049641;28;20226;-63
2022/07/11 07:05:24;;;;;;;0.68;0.68;;;20.90;99.90;;;;;;5041370;28;20207;-63
2022/07/11 07:07:52;;;;;;;0.85;0.73;;;21.10;99.90;;;;;;5045502;28;20208;-64
2022/07/11 07:10:19;;;;;;;0.60;0.60;;;21.20;99.90;;;;;;5043181;28;20221;-63
2022/07/11 07:12:46;;;;;;;0.60;0.60;;;21.20;99.90;;;;;;5045903;28;20204;-64
2022/07/11 07:15:13;;;;;;;0.70;0.70;;;21.30;99.90;;;;;;5047170;28;20685;-64
2022/07/11 07:17:41;;;;;;;0.73;0.73;;;21.40;99.90;;;;;;5045256;28;20955;-63
2022/07/11 07:20:10;;;;;;;0.65;0.65;;;21.30;99.90;;;;;;5044207;28;20224;-63
2022/07/11 07:22:37;;;;;;;0.70;0.70;;;21.40;99.90;;;;;;5044129;28;20303;-63
2022/07/11 07:25:09;;;;;;;0.57;0.57;;;21.60;99.90;;;;;;5043802;28;20588;-63
2022/07/11 07:27:36;;;;;;;0.90;0.73;;;21.70;99.90;;;;;;5044779;28;20294;-64
2022/07/11 07:30:03;;;;;;;0.70;0.70;;;21.80;99.90;;;;;;5041766;28;20306;-63
2022/07/11 07:32:30;;;;;;;0.80;0.80;;;21.90;99.90;;;;;;5048650;28;20211;-64
2022/07/11 07:34:57;;;;;;;0.50;0.50;;;21.80;99.90;;;;;;5044118;28;20598;-64
2022/07/11 07:37:23;;;;;;;0.75;0.75;;;21.90;99.90;;;;;;5045954;28;20287;-63
2022/07/11 07:39:50;;;;;;;0.57;0.57;;;22.00;99.90;;;;;;5043442;28;20671;-64
2022/07/11 07:42:19;;;;;;;0.75;0.75;;;22.00;99.90;;;;;;5042216;28;20228;-63
2022/07/11 07:44:45;;;;;;;0.65;0.65;;;22.10;99.90;;;;;;5049931;28;20223;-64
2022/07/11 07:47:12;;;;;;;0.70;0.70;;;22.30;99.90;;;;;;5051445;28;20271;-64
2022/07/11 07:49:39;;;;;;;0.80;0.80;;;22.20;99.90;;;;;;5044605;28;20219;-64
2022/07/11 07:52:06;;;;;;;1.27;0.90;;;22.10;99.90;;;;;;5045614;28;20319;-64
2022/07/11 07:54:33;;;;;;;0.80;0.80;;;22.20;99.90;;;;;;5048758;28;20212;-64
2022/07/11 07:57:00;;;;;;;0.80;0.80;;;22.20;99.90;;;;;;5050679;28;20236;-65
2022/07/11 07:59:28;;;;;;;0.70;0.70;;;22.30;99.90;;;;;;5049086;28;20262;-62
2022/07/11 08:01:54;;;;;;;0.85;0.85;;;22.40;99.90;;;;;;5042452;28;20223;-63
2022/07/11 08:04:22;;;;;;;0.80;0.80;;;22.50;99.90;;;;;;5046970;28;20200;-63
2022/07/11 08:06:49;;;;;;;0.85;0.85;;;22.50;99.90;;;;;;5038936;28;20216;-64
2022/07/11 08:09:16;;;;;;;0.80;0.80;;;22.70;99.90;;;;;;5045885;28;20629;-68
2022/07/11 08:11:42;;;;;;;1.27;0.85;;;22.80;99.90;;;;;;5049242;28;20211;-64
2022/07/11 08:14:09;;;;;;;0.70;0.70;;;22.80;99.90;;;;;;5050522;28;20319;-62
2022/07/11 08:16:38;;;;;;;0.90;0.90;;;22.80;99.90;;;;;;5051272;28;20227;-62
2022/07/11 08:19:06;;;;;;;0.60;0.60;;;22.90;99.90;;;;;;5047362;28;20212;-65
2022/07/11 08:21:34;;;;;;;0.70;0.70;;;22.90;99.90;;;;;;5048028;28;20576;-65
2022/07/11 08:24:01;;;;;;;0.70;0.70;;;22.90;99.90;;;;;;5050545;28;20202;-64
2022/07/11 08:26:29;;;;;;;0.60;0.60;;;23.00;99.90;;;;;;5049399;28;20203;-64
2022/07/11 08:28:56;;;;;;;1.00;1.00;;;23.00;99.90;;;;;;5050189;28;20214;-64
2022/07/11 08:31:23;;;;;;;0.60;0.60;;;23.30;99.90;;;;;;5046238;28;20299;-64
2022/07/11 08:33:52;;;;;;;0.80;0.80;;;23.40;99.90;;;;;;5048235;28;20310;-64
2022/07/11 08:36:19;;;;;;;1.10;0.88;;;23.40;99.90;;;;;;5050426;28;20204;-63
2022/07/11 08:38:47;;;;;;;0.57;0.57;;;23.50;99.90;;;;;;5050804;28;20214;-64
2022/07/11 08:41:16;;;;;;;0.70;0.70;;;23.60;99.90;;;;;;5047624;28;20686;-64
2022/07/11 08:43:44;;;;;;;0.60;0.60;;;23.40;99.90;;;;;;5048809;28;20222;-63
2022/07/11 08:46:12;;;;;;;0.60;0.60;;;23.40;99.90;;;;;;5046022;28;20204;-64
2022/07/11 08:48:40;;;;;;;0.60;0.60;;;23.60;99.90;;;;;;5044618;28;20665;-63
2022/07/11 08:51:09;;;;;;;0.57;0.57;;;23.80;99.90;;;;;;5043945;28;20242;-63
2022/07/11 08:53:43;;;;;;;0.60;0.60;;;24.10;99.90;;;;;;5047777;28;20241;-64
2022/07/11 08:56:14;;;;;;;0.50;0.50;;;24.30;99.90;;;;;;5040701;28;20204;-65
2022/07/11 08:58:44;;;;;;;0.60;0.60;;;24.60;99.90;;;;;;5049219;28;20230;-64
2022/07/11 09:01:11;;;;;;;0.50;0.50;;;24.70;99.90;;;;;;5050784;28;20254;-64
2022/07/11 09:03:38;;;;;;;0.50;0.50;;;24.80;99.90;;;;;;5044085;28;20200;-63
2022/07/11 09:06:05;;;;;;;0.40;0.40;;;24.80;99.90;;;;;;5044767;28;20630;-65
2022/07/11 09:08:34;;;;;;;0.40;0.40;;;24.80;99.90;;;;;;5048944;28;20630;-64
2022/07/11 09:11:02;;;;;;;0.35;0.35;;;24.80;99.90;;;;;;5046943;28;20311;-63
2022/07/11 09:13:30;;;;;;;0.30;0.30;;;24.60;99.90;;;;;;5047722;28;20210;-63
2022/07/11 09:16:03;;;;;;;0.40;0.40;;;24.70;99.90;;;;;;5055595;28;20196;-66
2022/07/11 09:18:32;;;;;;;0.50;0.50;;;24.60;99.90;;;;;;5050427;28;20543;-64
2022/07/11 09:26:49;;;;;;;0.57;0.57;;;24.90;99.90;;;;;;4969565;28;20218;-64
2022/07/11 09:29:17;;;;;;;0.60;0.60;;;25.10;99.90;;;;;;4966961;28;20631;-64
2022/07/11 09:31:45;;;;;;;0.30;0.30;;;25.20;99.90;;;;;;5004590;28;20595;-63
2022/07/11 09:34:14;;;;;;;0.57;0.57;;;25.40;99.90;;;;;;5050347;28;20301;-64
2022/07/11 09:36:44;;;;;;;0.40;0.40;;;25.50;99.90;;;;;;5050245;28;20738;-62
2022/07/11 09:39:15;;;;;;;0.38;0.38;;;25.40;99.90;;;;;;5049924;28;20226;-66
2022/07/11 09:41:43;;;;;;;0.77;0.77;;;25.60;99.90;;;;;;5047985;28;20279;-63
2022/07/11 09:44:15;;;;;;;0.40;0.40;;;25.60;99.90;;;;;;5046469;28;20207;-63
2022/07/11 09:46:43;;;;;;;0.70;0.70;;;25.60;99.90;;;;;;5049755;28;20295;-64
2022/07/11 09:49:10;;;;;;;0.50;0.50;;;25.80;99.90;;;;;;5046100;28;20218;-64
2022/07/11 09:51:38;;;;;;;0.40;0.40;;;25.60;99.90;;;;;;5042158;28;20225;-65
2022/07/11 09:54:06;;;;;;;0.70;0.70;;;25.50;99.90;;;;;;5045236;28;20216;-64
2022/07/11 09:56:41;;;;;;;0.60;0.60;;;25.50;99.90;;;;;;5050238;28;20236;-65
2022/07/11 09:59:09;;;;;;;0.63;0.63;;;25.50;99.90;;;;;;5049340;28;20278;-63
2022/07/11 10:01:37;;;;;;;0.63;0.63;;;25.50;99.90;;;;;;5044452;28;20225;-63
2022/07/11 10:04:06;;;;;;;0.55;0.55;;;25.50;99.90;;;;;;5054271;28;20207;-63
2022/07/11 10:06:33;;;;;;;0.52;0.52;;;25.50;99.90;;;;;;5056125;28;20210;-64
2022/07/11 10:09:01;;;;;;;0.70;0.70;;;25.50;99.90;;;;;;5050102;28;20210;-63
2022/07/11 10:11:29;;;;;;;0.60;0.60;;;25.20;99.90;;;;;;5049287;28;20295;-63
2022/07/11 10:13:59;;;;;;;0.60;0.60;;;25.00;99.90;;;;;;5053008;28;20247;-63
2022/07/11 10:16:35;;;;;;;0.60;0.60;;;24.80;99.90;;;;;;5047909;28;20301;-65
2022/07/11 10:19:15;;;;;;;0.45;0.45;;;24.90;99.90;;;;;;5044180;28;20645;-63
2022/07/11 10:21:53;;;;;;;0.60;0.60;;;24.80;99.90;;;;;;5051656;28;20313;-63
2022/07/11 10:24:34;;;;;;;0.55;0.55;;;24.70;99.90;;;;;;5048688;28;20204;-63
2022/07/11 10:27:11;;;;;;;0.50;0.50;;;24.40;99.90;;;;;;5051761;28;20671;-63
2022/07/11 10:29:44;;;;;;;0.88;0.80;;;24.60;99.90;;;;;;5051483;28;20204;-64
2022/07/11 10:32:13;;;;;;;0.60;0.60;;;24.80;99.90;;;;;;5050986;28;20281;-63
2022/07/11 10:34:40;;;;;;;0.60;0.60;;;24.90;99.90;;;;;;5049879;28;20273;-63
2022/07/11 10:37:09;;;;;;;0.60;0.60;;;24.80;99.90;;;;;;5052155;28;20239;-65
2022/07/11 10:39:36;;;;;;;0.60;0.60;;;25.00;99.90;;;;;;5042201;28;20205;-67
2022/07/11 10:42:05;;;;;;;0.70;0.70;;;25.10;99.90;;;;;;5048717;28;20824;-64
2022/07/11 10:44:52;;;;;;;0.50;0.50;;;25.00;99.90;;;;;;5047102;28;20208;-63
2022/07/11 10:47:33;;;;;;;0.47;0.47;;;24.80;99.90;;;;;;5053371;28;20257;-63
2022/07/11 10:50:03;;;;;;;0.63;0.63;;;25.00;99.90;;;;;;5043578;28;20207;-63
2022/07/11 10:52:32;;;;;;;0.52;0.50;;;25.00;99.90;;;;;;5053756;28;20230;-65
2022/07/11 10:55:09;;;;;;;0.60;0.60;;;25.20;99.90;;;;;;5049177;28;20685;-65
2022/07/11 10:57:42;;;;;;;0.65;0.65;;;25.20;99.90;;;;;;5048974;28;20207;-63
2022/07/11 11:00:14;;;;;;;0.60;0.60;;;25.20;99.90;;;;;;5055303;28;20227;-65
2022/07/11 11:03:04;;;;;;;0.52;0.52;;;25.20;99.90;;;;;;5055734;28;20200;-65
2022/07/11 11:05:47;;;;;;;0.60;0.60;;;25.30;99.90;;;;;;5053267;28;20196;-65
2022/07/11 11:08:47;;;;;;;0.60;0.60;;;25.20;99.90;;;;;;5047599;28;20203;-63
2022/07/11 11:11:37;;;;;;;0.88;0.80;;;25.30;99.90;;;;;;5052123;28;20220;-64
2022/07/11 11:14:26;;;;;;;0.70;0.70;;;25.40;99.90;;;;;;5042470;28;20887;-64
2022/07/11 11:16:54;;;;;;;0.68;0.68;;;25.60;99.90;;;;;;5051373;28;20196;-63
2022/07/11 11:19:53;;;;;;;0.75;0.75;;;25.70;99.90;;;;;;5050214;28;20204;-63
2022/07/11 11:22:21;;;;;;;0.70;0.70;;;25.90;99.90;;;;;;5050274;28;20686;-65
2022/07/11 11:24:49;;;;;;;0.50;0.50;;;25.70;99.90;;;;;;5049643;28;20282;-62
2022/07/11 11:27:19;;;;;;;0.70;0.70;;;25.70;99.90;;;;;;5046756;28;20726;-65
2022/07/11 11:29:46;;;;;;;0.80;0.80;;;25.90;99.90;;;;;;5047855;28;20584;-64
2022/07/11 11:32:15;;;;;;;0.70;0.70;;;26.00;99.90;;;;;;5050218;28;20223;-66
2022/07/11 11:34:42;;;;;;;0.60;0.60;;;26.10;99.90;;;;;;5047838;28;20281;-63
2022/07/11 11:37:09;;;;;;;0.65;0.65;;;26.30;99.90;;;;;;5048362;28;20299;-64
2022/07/11 11:39:38;;;;;;;0.63;0.63;;;26.50;99.90;;;;;;5052144;28;20222;-63
2022/07/11 11:42:08;;;;;;;0.75;0.75;;;26.40;99.90;;;;;;5051002;28;21389;-63
2022/07/11 11:44:36;;;;;;;0.60;0.60;;;26.50;99.90;;;;;;5051890;28;20287;-65
2022/07/11 11:47:03;;;;;;;0.60;0.60;;;26.40;99.90;;;;;;5047146;28;20211;-64
2022/07/11 11:49:42;;;;;;;0.70;0.70;;;26.40;99.90;;;;;;5048065;28;20247;-63
2022/07/11 11:52:09;;;;;;;0.60;0.60;;;26.40;99.90;;;;;;5047006;28;20247;-64
2022/07/11 11:54:35;;;;;;;0.70;0.70;;;26.70;99.90;;;;;;5050361;28;20251;-62
2022/07/11 11:57:07;;;;;;;0.60;0.60;;;26.40;99.90;;;;;;5046829;28;20211;-65
2022/07/11 11:59:34;;;;;;;0.70;0.70;;;26.50;99.90;;;;;;5045372;28;20211;-63
2022/07/11 12:02:01;;;;;;;0.90;0.90;;;26.80;99.90;;;;;;5035964;28;20236;-63
2022/07/11 12:04:33;;;;;;;3.05;0.90;;;27.00;99.90;;;;;;5048167;28;20214;-63
2022/07/11 12:07:02;;;;;;;1.02;1.02;;;26.90;99.90;;;;;;5041955;28;20193;-63
2022/07/11 12:09:50;;;;;;;0.60;0.60;;;26.70;99.90;;;;;;5039702;28;20301;-65
2022/07/11 12:15:08;;;;;;;0.60;0.60;;;26.90;99.90;;;;;;5042530;28;20219;-63
2022/07/11 12:17:36;;;;;;;0.70;0.70;;;27.10;99.90;;;;;;5049123;28;20204;-64
2022/07/11 12:20:06;;;;;;;0.70;0.70;;;27.10;99.90;;;;;;5056151;28;20200;-63
2022/07/11 12:22:42;;;;;;;0.68;0.68;;;27.40;99.90;;;;;;5045587;28;20257;-63
2022/07/11 12:25:11;;;;;;;0.80;0.80;;;27.30;99.90;;;;;;5042080;28;20204;-63
2022/07/11 12:27:37;;;;;;;0.80;0.80;;;27.20;99.90;;;;;;5043911;28;20269;-62
2022/07/11 12:30:05;;;;;;;1.55;0.80;;;27.30;99.90;;;;;;5042898;28;20204;-64
2022/07/11 12:32:32;;;;;;;1.00;1.00;;;27.10;99.90;;;;;;5035100;28;20737;-62
2022/07/11 12:35:10;;;;;;;1.20;0.77;;;27.00;99.90;;;;;;5040337;28;20327;-64
2022/07/11 12:37:39;;;;;;;0.52;0.52;;;27.10;99.90;;;;;;5043931;28;20201;-65
2022/07/11 12:40:07;;;;;;;0.60;0.60;;;27.10;99.90;;;;;;5044705;28;20213;-64
2022/07/11 12:42:35;;;;;;;0.80;0.80;;;27.00;99.90;;;;;;5043672;28;20650;-63
2022/07/11 12:45:07;;;;;;;0.70;0.70;;;27.20;99.90;;;;;;5044656;28;20200;-65
2022/07/11 12:47:36;;;;;;;0.70;0.70;;;27.20;99.90;;;;;;5047113;28;20226;-65
2022/07/11 12:50:12;;;;;;;0.80;0.80;;;27.20;99.90;;;;;;5049672;28;20207;-63
2022/07/11 12:52:41;;;;;;;0.68;0.68;;;27.20;99.90;;;;;;5049592;28;20211;-63
2022/07/11 12:55:11;;;;;;;0.60;0.60;;;27.30;99.90;;;;;;5049610;28;21030;-64
2022/07/11 12:57:38;;;;;;;0.60;0.60;;;27.40;99.90;;;;;;5044741;28;20685;-65
2022/07/11 13:00:16;;;;;;;2.20;1.02;;;27.40;99.90;;;;;;5047497;28;20200;-64
2022/07/11 13:02:49;;;;;;;1.08;0.80;;;27.60;99.90;;;;;;5043967;28;20212;-64
2022/07/11 13:05:16;;;;;;;0.63;0.63;;;27.50;99.90;;;;;;5042948;28;20219;-62